MCB Quantico, Virginia
Current Conditions -  °F | °C
As of 1:56 AM on Saturday 25 Oct 2014 (Local Time) from KNYG Reporting Station
Clear Clear  
Wind Chill: 47°   Ceiling: Unl
Heat Index: 47°   Visibility: 10mi
Dew Point: 41°   Wind: 3mph
Humidity: 80%   Direction: 290°WNW
Pressure: 29.98"   Gusts: NA
Location:  38.58°N, 77.4441°W
Report Text: KNYG 250556Z AUTO 29003KT 10SM CLR 08/05 A2998 RMK AO2 SLP152 T00830050 10122 20078 50001 $
Loading
Personal Weather Stations






























Interactive Weather Map
Tropical Storm Tracking
New forecast layout! Learn more

10-Day Weather Forecast

Advertisements
Track Severe Weather on mobile